createdAt,value
2018-08-04T00:01:07.250Z,0
2018-08-04T00:02:16.165Z,0
2018-08-04T00:03:24.820Z,0
2018-08-04T00:04:33.735Z,0
2018-08-04T00:05:42.387Z,0
2018-08-04T00:06:51.560Z,0
2018-08-04T00:08:00.475Z,0
2018-08-04T00:09:09.132Z,0
2018-08-04T00:10:17.782Z,0
2018-08-04T00:11:26.433Z,0
2018-08-04T00:12:35.078Z,0
2018-08-04T00:13:43.733Z,0
2018-08-04T00:14:52.651Z,0
2018-08-04T00:16:01.565Z,0
2018-08-04T00:17:10.473Z,0
2018-08-04T00:18:19.127Z,0
2018-08-04T00:19:27.785Z,0
2018-08-04T00:20:36.440Z,0
2018-08-04T00:21:45.084Z,0
2018-08-04T00:22:54.005Z,0
2018-08-04T00:24:02.656Z,0
2018-08-04T00:25:11.315Z,0
2018-08-04T00:26:19.959Z,0
2018-08-04T00:27:28.605Z,0
2018-08-04T00:28:37.256Z,0
2018-08-04T00:29:46.172Z,0
2018-08-04T00:30:54.825Z,0
2018-08-04T00:32:03.735Z,0
2018-08-04T00:33:12.383Z,0
2018-08-04T00:34:21.036Z,0
2018-08-04T00:35:29.692Z,0
2018-08-04T00:36:38.335Z,0
2018-08-04T00:37:46.983Z,0
2018-08-04T00:38:55.629Z,0
2018-08-04T00:40:04.556Z,0
2018-08-04T00:41:13.206Z,0
2018-08-04T00:42:21.853Z,0
2018-08-04T00:43:30.502Z,0
2018-08-04T00:44:39.421Z,0
2018-08-04T00:45:48.083Z,0
2018-08-04T00:46:56.729Z,0
2018-08-04T00:48:05.383Z,0
2018-08-04T00:49:14.024Z,0
2018-08-04T00:50:22.683Z,0
2018-08-04T00:51:31.595Z,0
2018-08-04T00:52:40.776Z,0
2018-08-04T00:53:49.689Z,0
2018-08-04T00:54:58.348Z,0
2018-08-04T00:56:06.995Z,0
2018-08-04T00:57:15.642Z,0
2018-08-04T00:58:24.284Z,0
2018-08-04T00:59:32.935Z,0
2018-08-04T01:00:41.597Z,0
2018-08-04T01:01:50.245Z,0
2018-08-04T01:02:58.899Z,0
2018-08-04T01:04:07.536Z,0
2018-08-04T01:05:16.191Z,0
2018-08-04T01:06:24.837Z,0
2018-08-04T01:07:33.755Z,0
2018-08-04T01:08:42.660Z,0
2018-08-04T01:09:51.316Z,0
2018-08-04T01:10:59.960Z,0
2018-08-04T01:12:08.620Z,0
2018-08-04T01:13:17.258Z,0
2018-08-04T01:14:26.177Z,0
2018-08-04T01:15:34.822Z,0
2018-08-04T01:16:43.746Z,0
2018-08-04T01:17:52.393Z,0
2018-08-04T01:19:01.038Z,0
2018-08-04T01:20:09.684Z,0
2018-08-04T01:21:18.600Z,0
2018-08-04T01:22:27.258Z,0
2018-08-04T01:23:35.901Z,0
2018-08-04T01:24:44.823Z,0
2018-08-04T01:25:53.465Z,0
2018-08-04T01:27:02.127Z,0
2018-08-04T01:28:10.773Z,0
2018-08-04T01:29:19.425Z,0
2018-08-04T01:30:28.064Z,0
2018-08-04T01:31:36.726Z,0
2018-08-04T01:32:45.368Z,0
2018-08-04T01:33:54.036Z,0
2018-08-04T01:35:02.952Z,0
2018-08-04T01:36:11.590Z,0
2018-08-04T01:37:20.232Z,0
2018-08-04T01:38:29.405Z,0
2018-08-04T01:39:38.051Z,0
2018-08-04T01:40:46.710Z,0
2018-08-04T01:41:55.354Z,0
2018-08-04T01:43:04.008Z,0
2018-08-04T01:44:12.651Z,0
2018-08-04T01:45:21.307Z,0
2018-08-04T01:46:29.951Z,0
2018-08-04T01:47:38.605Z,0
2018-08-04T01:48:47.509Z,0
2018-08-04T01:49:56.168Z,0
2018-08-04T01:51:04.819Z,0
2018-08-04T01:52:13.469Z,0
2018-08-04T01:53:22.109Z,0
2018-08-04T01:54:30.760Z,0
2018-08-04T01:55:39.412Z,0
2018-08-04T01:56:48.063Z,0
2018-08-04T01:57:57.241Z,0
2018-08-04T01:59:05.905Z,0
2018-08-04T02:00:14.535Z,0
2018-08-04T02:01:23.177Z,0
2018-08-04T02:02:31.833Z,0
2018-08-04T02:03:40.471Z,0
2018-08-04T02:04:49.125Z,0
2018-08-04T02:05:57.768Z,0
2018-08-04T02:07:06.437Z,0
2018-08-04T02:08:15.072Z,0
2018-08-04T02:09:23.728Z,0
2018-08-04T02:10:32.374Z,0
2018-08-04T02:11:41.028Z,0
2018-08-04T02:12:49.676Z,0
2018-08-04T02:13:58.326Z,0
2018-08-04T02:15:06.967Z,0
2018-08-04T02:16:15.613Z,0
2018-08-04T02:17:24.273Z,0
2018-08-04T02:18:32.915Z,0
2018-08-04T02:19:41.841Z,0
2018-08-04T02:20:50.743Z,0
2018-08-04T02:21:59.400Z,0
2018-08-04T02:23:08.045Z,0
2018-08-04T02:24:16.960Z,0
2018-08-04T02:25:25.863Z,0
2018-08-04T02:26:34.530Z,0
2018-08-04T02:27:43.177Z,0
2018-08-04T02:28:51.828Z,0
2018-08-04T02:30:00.473Z,0
2018-08-04T02:31:09.383Z,0
2018-08-04T02:32:18.303Z,0
2018-08-04T02:33:26.955Z,0
2018-08-04T02:34:36.143Z,0
2018-08-04T02:35:44.793Z,0
2018-08-04T02:36:53.450Z,0
2018-08-04T02:38:02.102Z,0
2018-08-04T02:39:11.089Z,0
2018-08-04T02:40:19.996Z,0
2018-08-04T02:41:28.651Z,0
2018-08-04T02:42:37.567Z,0
2018-08-04T02:43:46.483Z,0
2018-08-04T02:44:55.397Z,0
2018-08-04T02:46:04.050Z,0
2018-08-04T02:47:13.230Z,0
2018-08-04T02:48:22.157Z,0
2018-08-04T02:49:30.805Z,0
2018-08-04T02:50:39.455Z,0
2018-08-04T02:51:48.101Z,0
2018-08-04T02:52:57.020Z,0
2018-08-04T02:54:05.665Z,0
2018-08-04T02:55:14.318Z,0
2018-08-04T02:56:22.979Z,0
2018-08-04T02:57:31.884Z,0
2018-08-04T02:58:40.536Z,0
2018-08-04T02:59:49.711Z,0
2018-08-04T03:00:58.622Z,0
2018-08-04T03:02:07.268Z,0
2018-08-04T03:03:16.197Z,0
2018-08-04T03:04:25.398Z,0
2018-08-04T03:05:34.032Z,0
2018-08-04T03:06:42.677Z,0
2018-08-04T03:07:51.595Z,0
2018-08-04T03:09:00.248Z,0
2018-08-04T03:10:08.902Z,0
2018-08-04T03:11:17.553Z,0
2018-08-04T03:12:26.196Z,0
2018-08-04T03:13:35.118Z,0
2018-08-04T03:14:43.787Z,0
2018-08-04T03:15:52.441Z,0
2018-08-04T03:17:01.381Z,0
2018-08-04T03:18:10.035Z,0
2018-08-04T03:19:18.951Z,4
2018-08-04T03:20:27.871Z,4
2018-08-04T03:21:36.514Z,0
2018-08-04T03:22:45.164Z,4
2018-08-04T03:23:53.813Z,4
2018-08-04T03:25:02.729Z,0
2018-08-04T03:26:11.384Z,4
2018-08-04T03:27:20.042Z,4
2018-08-04T03:28:28.693Z,4
2018-08-04T03:29:37.611Z,4
2018-08-04T03:30:46.272Z,4
2018-08-04T03:31:54.939Z,8
2018-08-04T03:33:03.575Z,8
2018-08-04T03:34:12.482Z,8
2018-08-04T03:35:21.425Z,8
2018-08-04T03:36:30.331Z,8
2018-08-04T03:37:38.983Z,12
2018-08-04T03:38:47.624Z,12
2018-08-04T03:39:56.275Z,16
2018-08-04T03:41:04.921Z,16
2018-08-04T03:42:13.571Z,20
2018-08-04T03:43:22.214Z,24
2018-08-04T03:44:30.866Z,28
2018-08-04T03:45:39.514Z,36
2018-08-04T03:46:48.168Z,40
2018-08-04T03:47:56.820Z,48
2018-08-04T03:49:05.467Z,52
2018-08-04T03:50:14.382Z,60
2018-08-04T03:51:23.031Z,64
2018-08-04T03:52:31.683Z,72
2018-08-04T03:53:40.328Z,72
2018-08-04T03:54:48.979Z,76
2018-08-04T03:55:57.625Z,76
2018-08-04T03:57:06.276Z,76
2018-08-04T03:58:14.919Z,80
2018-08-04T03:59:23.832Z,84
2018-08-04T04:00:32.760Z,92
2018-08-04T04:01:41.415Z,100
2018-08-04T04:02:50.060Z,100
2018-08-04T04:03:58.709Z,112
2018-08-04T04:05:07.355Z,116
2018-08-04T04:06:16.271Z,120
2018-08-04T04:07:25.187Z,124
2018-08-04T04:08:33.834Z,132
2018-08-04T04:09:42.756Z,144
2018-08-04T04:10:51.399Z,160
2018-08-04T04:12:00.322Z,180
2018-08-04T04:13:08.969Z,200
2018-08-04T04:14:17.622Z,216
2018-08-04T04:15:26.260Z,232
2018-08-04T04:16:34.913Z,264
2018-08-04T04:17:43.559Z,284
2018-08-04T04:18:52.214Z,288
2018-08-04T04:20:01.119Z,276
2018-08-04T04:21:10.037Z,264
2018-08-04T04:22:18.683Z,260
2018-08-04T04:23:27.334Z,264
2018-08-04T04:24:35.980Z,276
2018-08-04T04:25:44.629Z,292
2018-08-04T04:26:53.547Z,312
2018-08-04T04:28:02.455Z,324
2018-08-04T04:29:11.113Z,340
2018-08-04T04:30:20.015Z,356
2018-08-04T04:31:28.672Z,368
2018-08-04T04:32:37.311Z,384
2018-08-04T04:33:45.975Z,384
2018-08-04T04:34:54.617Z,384
2018-08-04T04:36:03.528Z,396
2018-08-04T04:37:12.174Z,408
2018-08-04T04:38:21.102Z,424
2018-08-04T04:39:29.753Z,444
2018-08-04T04:40:38.393Z,460
2018-08-04T04:41:47.300Z,488
2018-08-04T04:42:55.944Z,524
2018-08-04T04:44:04.602Z,580
2018-08-04T04:45:13.245Z,624
2018-08-04T04:46:21.905Z,672
2018-08-04T04:47:30.544Z,744
2018-08-04T04:48:39.203Z,832
2018-08-04T04:49:47.844Z,888
2018-08-04T04:50:56.496Z,924
2018-08-04T04:52:05.133Z,920
2018-08-04T04:53:13.792Z,900
2018-08-04T04:54:22.452Z,892
2018-08-04T04:55:31.114Z,904
2018-08-04T04:56:39.734Z,940
2018-08-04T04:57:48.385Z,976
2018-08-04T04:58:57.038Z,996
2018-08-04T05:00:05.688Z,1008
2018-08-04T05:01:14.339Z,1024
2018-08-04T05:02:22.978Z,1044
2018-08-04T05:03:31.630Z,1056
2018-08-04T05:04:40.275Z,1068
2018-08-04T05:05:48.932Z,1080
2018-08-04T05:06:57.572Z,1112
2018-08-04T05:08:06.224Z,1168
2018-08-04T05:09:14.873Z,1228
2018-08-04T05:10:23.787Z,1316
2018-08-04T05:11:32.425Z,1436
2018-08-04T05:12:41.077Z,1548
2018-08-04T05:13:49.749Z,1648
2018-08-04T05:14:58.380Z,1708
2018-08-04T05:16:07.025Z,1724
2018-08-04T05:17:15.668Z,1716
2018-08-04T05:18:24.313Z,1680
2018-08-04T05:19:32.960Z,1636
2018-08-04T05:20:41.618Z,1596
2018-08-04T05:21:50.271Z,1572
2018-08-04T05:22:58.914Z,1560
2018-08-04T05:24:07.557Z,1552
2018-08-04T05:25:16.475Z,1564
2018-08-04T05:26:25.119Z,1604
2018-08-04T05:27:33.776Z,1660
2018-08-04T05:28:42.427Z,1732
2018-08-04T05:29:51.068Z,1828
2018-08-04T05:30:59.721Z,1908
2018-08-04T05:32:08.398Z,1988
2018-08-04T05:33:17.025Z,2052
2018-08-04T05:34:25.677Z,2096
2018-08-04T05:35:34.322Z,2116
2018-08-04T05:36:43.493Z,2100
2018-08-04T05:37:52.141Z,2088
2018-08-04T05:39:00.799Z,2092
2018-08-04T05:40:09.447Z,2116
2018-08-04T05:41:18.101Z,2132
2018-08-04T05:42:26.741Z,2132
2018-08-04T05:43:35.483Z,2124
2018-08-04T05:44:44.046Z,2140
2018-08-04T05:45:52.700Z,2184
2018-08-04T05:47:01.338Z,2244
2018-08-04T05:48:09.998Z,2296
2018-08-04T05:49:18.643Z,2340
2018-08-04T05:50:27.292Z,2368
2018-08-04T05:51:35.933Z,2404
2018-08-04T05:52:44.845Z,2432
2018-08-04T05:53:53.498Z,2444
2018-08-04T05:55:02.426Z,2460
2018-08-04T05:56:11.076Z,2480
2018-08-04T05:57:19.729Z,2476
2018-08-04T05:58:28.374Z,2484
2018-08-04T05:59:37.018Z,2488
2018-08-04T06:00:45.689Z,2544
2018-08-04T06:01:54.591Z,2588
2018-08-04T06:03:03.514Z,2684
2018-08-04T06:04:12.421Z,2924
2018-08-04T06:05:21.078Z,3148
2018-08-04T06:06:29.716Z,3040
2018-08-04T06:07:38.634Z,3048
2018-08-04T06:08:47.281Z,3184
2018-08-04T06:09:55.942Z,3432
2018-08-04T06:11:04.586Z,3632
2018-08-04T06:12:13.231Z,3764
2018-08-04T06:13:21.877Z,3908
2018-08-04T06:14:30.523Z,4072
2018-08-04T06:15:39.176Z,4244
2018-08-04T06:16:47.821Z,4308
2018-08-04T06:17:56.473Z,4748
2018-08-04T06:19:05.378Z,4648
2018-08-04T06:20:14.035Z,4844
2018-08-04T06:21:22.680Z,5000
2018-08-04T06:22:31.334Z,4928
2018-08-04T06:23:40.236Z,4816
2018-08-04T06:24:49.158Z,4932
2018-08-04T06:25:57.805Z,4928
2018-08-04T06:27:06.455Z,5012
2018-08-04T06:28:15.150Z,4968
2018-08-04T06:29:23.751Z,4884
2018-08-04T06:30:32.488Z,4572
2018-08-04T06:31:41.063Z,4452
2018-08-04T06:32:49.709Z,4632
2018-08-04T06:33:58.613Z,4616
2018-08-04T06:35:07.524Z,4488
2018-08-04T06:36:16.174Z,4504
2018-08-04T06:37:24.827Z,4396
2018-08-04T06:38:33.476Z,4328
2018-08-04T06:39:42.129Z,4228
2018-08-04T06:40:50.778Z,4348
2018-08-04T06:41:59.434Z,4204
2018-08-04T06:43:08.341Z,4300
2018-08-04T06:44:16.993Z,4276
2018-08-04T06:45:25.643Z,4188
2018-08-04T06:46:34.297Z,4204
2018-08-04T06:47:42.947Z,4132
2018-08-04T06:48:51.602Z,4064
2018-08-04T06:50:00.250Z,3960
2018-08-04T06:51:08.899Z,3880
2018-08-04T06:52:17.556Z,3708
2018-08-04T06:53:26.204Z,3436
2018-08-04T06:54:34.854Z,3204
2018-08-04T06:55:43.526Z,3080
2018-08-04T06:56:52.439Z,2972
2018-08-04T06:58:01.087Z,2916
2018-08-04T06:59:09.737Z,2916
2018-08-04T07:00:18.383Z,2860
2018-08-04T07:01:27.040Z,2872
2018-08-04T07:02:35.684Z,2868
2018-08-04T07:03:44.339Z,2904
2018-08-04T07:04:52.984Z,2992
2018-08-04T07:06:01.639Z,3088
2018-08-04T07:07:10.290Z,2984
2018-08-04T07:08:18.946Z,2980
2018-08-04T07:09:27.598Z,3032
2018-08-04T07:10:36.242Z,3080
2018-08-04T07:11:44.893Z,3096
2018-08-04T07:12:53.542Z,3252
2018-08-04T07:14:02.198Z,3544
2018-08-04T07:15:10.842Z,3512
2018-08-04T07:16:19.491Z,3408
2018-08-04T07:17:28.141Z,3336
2018-08-04T07:18:36.795Z,3208
2018-08-04T07:19:45.442Z,3228
2018-08-04T07:20:54.096Z,2980
2018-08-04T07:22:02.746Z,2828
2018-08-04T07:23:11.403Z,2664
2018-08-04T07:24:20.050Z,2876
2018-08-04T07:25:28.704Z,2788
2018-08-04T07:26:37.360Z,2872
2018-08-04T07:27:46.013Z,2580
2018-08-04T07:28:54.673Z,2440
2018-08-04T07:30:03.316Z,2500
2018-08-04T07:31:11.958Z,2680
2018-08-04T07:32:20.623Z,2384
2018-08-04T07:33:29.263Z,2512
2018-08-04T07:34:37.919Z,2712
2018-08-04T07:35:46.565Z,2340
2018-08-04T07:36:55.228Z,2072
2018-08-04T07:38:03.864Z,1872
2018-08-04T07:39:12.518Z,1652
2018-08-04T07:40:21.170Z,1964
2018-08-04T07:41:29.822Z,2008
2018-08-04T07:42:38.469Z,1884
2018-08-04T07:43:47.385Z,2184
2018-08-04T07:44:56.031Z,2164
2018-08-04T07:46:04.679Z,2472
2018-08-04T07:47:13.338Z,2472
2018-08-04T07:48:21.984Z,2528
2018-08-04T07:49:30.905Z,2520
2018-08-04T07:50:39.578Z,2504
2018-08-04T07:51:48.501Z,2500
2018-08-04T07:52:57.147Z,2496
2018-08-04T07:54:06.069Z,2496
2018-08-04T07:55:14.708Z,2492
2018-08-04T07:56:23.368Z,2476
2018-08-04T07:57:32.018Z,2460
2018-08-04T07:58:40.924Z,2444
2018-08-04T07:59:49.831Z,2456
2018-08-04T08:00:58.745Z,2456
2018-08-04T08:02:07.399Z,2452
2018-08-04T08:03:16.055Z,2448
2018-08-04T08:04:24.707Z,2452
2018-08-04T08:05:33.352Z,2436
2018-08-04T08:06:42.007Z,2432
2018-08-04T08:07:50.651Z,2424
2018-08-04T08:08:59.315Z,2440
2018-08-04T08:10:07.956Z,2456
2018-08-04T08:11:16.656Z,2448
2018-08-04T08:12:25.578Z,2448
2018-08-04T08:13:34.241Z,2444
2018-08-04T08:14:42.883Z,2444
2018-08-04T08:15:51.542Z,2440
2018-08-04T08:17:00.191Z,2444
2018-08-04T08:18:09.114Z,2448
2018-08-04T08:19:17.776Z,2444
2018-08-04T08:20:26.410Z,2444
2018-08-04T08:21:35.063Z,2448
2018-08-04T08:22:43.969Z,2452
2018-08-04T08:23:52.628Z,2460
2018-08-04T08:25:01.282Z,2456
2018-08-04T08:26:09.938Z,2456
2018-08-04T08:27:18.586Z,2460
2018-08-04T08:28:27.240Z,2472
2018-08-04T08:29:35.893Z,2472
2018-08-04T08:30:44.548Z,2456
2018-08-04T08:31:53.461Z,2468
2018-08-04T08:33:02.117Z,2476
2018-08-04T08:34:10.767Z,2488
2018-08-04T08:35:19.423Z,2488
2018-08-04T08:36:28.071Z,2488
2018-08-04T08:37:36.724Z,2492
2018-08-04T08:38:45.645Z,2504
2018-08-04T08:39:54.568Z,2512
2018-08-04T08:41:03.220Z,2520
2018-08-04T08:42:11.868Z,2532
2018-08-04T08:43:20.522Z,2540
2018-08-04T08:44:29.168Z,2552
2018-08-04T08:45:38.425Z,2564
2018-08-04T08:46:47.073Z,2568
2018-08-04T08:47:55.727Z,2572
2018-08-04T08:49:04.379Z,2572
2018-08-04T08:50:13.037Z,2576
2018-08-04T08:51:21.683Z,2564
2018-08-04T08:52:30.336Z,2572
2018-08-04T08:53:39.004Z,2564
2018-08-04T08:54:47.646Z,2576
2018-08-04T08:55:56.296Z,2564
2018-08-04T08:57:05.216Z,2576
2018-08-04T08:58:14.136Z,2580
2018-08-04T08:59:22.785Z,2584
2018-08-04T09:00:31.710Z,2584
2018-08-04T09:01:40.361Z,2588
2018-08-04T09:02:49.281Z,2584
2018-08-04T09:03:58.189Z,2588
2018-08-04T09:05:06.847Z,2596
2018-08-04T09:06:15.500Z,2612
2018-08-04T09:07:24.438Z,2588
2018-08-04T09:08:33.146Z,2588
2018-08-04T09:09:41.744Z,2596
2018-08-04T09:10:50.392Z,2576
2018-08-04T09:11:59.044Z,2572
2018-08-04T09:13:07.693Z,2564
2018-08-04T09:14:16.348Z,2564
2018-08-04T09:15:24.997Z,2556
2018-08-04T09:16:33.923Z,2552
2018-08-04T09:17:42.870Z,2580
2018-08-04T09:18:51.517Z,2580
2018-08-04T09:20:00.168Z,2572
2018-08-04T09:21:08.821Z,2568
2018-08-04T09:22:17.477Z,2568
2018-08-04T09:23:26.125Z,2568
2018-08-04T09:24:34.783Z,2556
2018-08-04T09:25:43.435Z,2552
2018-08-04T09:26:52.081Z,2560
2018-08-04T09:28:00.738Z,2576
2018-08-04T09:29:09.390Z,2576
2018-08-04T09:30:18.056Z,2576
2018-08-04T09:31:26.963Z,2568
2018-08-04T09:32:35.618Z,2588
2018-08-04T09:33:44.277Z,2592
2018-08-04T09:34:53.192Z,2584
2018-08-04T09:36:01.851Z,2576
2018-08-04T09:37:11.027Z,2572
2018-08-04T09:38:19.680Z,2584
2018-08-04T09:39:28.330Z,2564
2018-08-04T09:40:36.989Z,2576
2018-08-04T09:41:45.900Z,2572
2018-08-04T09:42:54.556Z,2568
2018-08-04T09:44:03.224Z,2588
2018-08-04T09:45:11.867Z,2584
2018-08-04T09:46:20.517Z,2584
2018-08-04T09:47:29.171Z,2588
2018-08-04T09:48:37.824Z,2604
2018-08-04T09:49:46.480Z,2612
2018-08-04T09:50:55.130Z,2608
2018-08-04T09:52:03.782Z,2620
2018-08-04T09:53:12.433Z,2628
2018-08-04T09:54:21.082Z,2628
2018-08-04T09:55:29.742Z,2616
2018-08-04T09:56:38.396Z,2604
2018-08-04T09:57:47.051Z,2620
2018-08-04T09:58:55.701Z,2648
2018-08-04T10:00:04.352Z,2668
2018-08-04T10:01:13.270Z,2692
2018-08-04T10:02:21.923Z,2700
2018-08-04T10:03:30.573Z,2692
2018-08-04T10:04:39.229Z,2660
2018-08-04T10:05:47.880Z,2636
2018-08-04T10:06:56.802Z,2676
2018-08-04T10:08:05.447Z,2692
2018-08-04T10:09:14.101Z,2700
2018-08-04T10:10:23.018Z,2684
2018-08-04T10:11:31.676Z,2684
2018-08-04T10:12:40.328Z,2696
2018-08-04T10:13:48.975Z,2696
2018-08-04T10:14:57.633Z,2704
2018-08-04T10:16:06.290Z,2688
2018-08-04T10:17:14.950Z,2684
2018-08-04T10:18:23.601Z,2680
2018-08-04T10:19:32.547Z,2656
2018-08-04T10:20:41.201Z,2672
2018-08-04T10:21:49.859Z,2696
2018-08-04T10:22:58.504Z,2708
2018-08-04T10:24:07.158Z,2724
2018-08-04T10:25:15.814Z,2748
2018-08-04T10:26:24.477Z,2760
2018-08-04T10:27:33.387Z,2744
2018-08-04T10:28:42.043Z,2752
2018-08-04T10:29:50.965Z,2788
2018-08-04T10:30:59.880Z,2816
2018-08-04T10:32:08.670Z,2828
2018-08-04T10:33:17.193Z,2848
2018-08-04T10:34:26.124Z,2876
2018-08-04T10:35:34.767Z,2868
2018-08-04T10:36:43.430Z,2888
2018-08-04T10:37:52.078Z,2900
2018-08-04T10:39:00.739Z,2928
2018-08-04T10:40:09.384Z,2920
2018-08-04T10:41:18.048Z,2928
2018-08-04T10:42:26.703Z,2960
2018-08-04T10:43:35.357Z,2952
2018-08-04T10:44:44.002Z,2936
2018-08-04T10:45:52.662Z,2956
2018-08-04T10:47:01.318Z,2976
2018-08-04T10:48:09.974Z,2952
2018-08-04T10:49:18.626Z,2984
2018-08-04T10:50:27.272Z,2980
2018-08-04T10:51:35.930Z,3024
2018-08-04T10:52:44.578Z,3036
2018-08-04T10:53:53.511Z,3036
2018-08-04T10:55:02.419Z,3060
2018-08-04T10:56:11.077Z,3072
2018-08-04T10:57:19.725Z,3072
2018-08-04T10:58:28.388Z,3088
2018-08-04T10:59:37.034Z,3080
2018-08-04T11:00:45.954Z,3088
2018-08-04T11:01:54.611Z,3100
2018-08-04T11:03:03.277Z,3112
2018-08-04T11:04:11.926Z,3136
2018-08-04T11:05:20.575Z,3132
2018-08-04T11:06:29.227Z,3136
2018-08-04T11:07:38.167Z,3156
2018-08-04T11:08:47.089Z,3132
2018-08-04T11:09:56.007Z,3152
2018-08-04T11:11:04.664Z,3204
2018-08-04T11:12:13.310Z,3188
2018-08-04T11:13:21.974Z,3144
2018-08-04T11:14:30.624Z,3208
2018-08-04T11:15:39.550Z,3240
2018-08-04T11:16:48.207Z,3224
2018-08-04T11:17:56.877Z,3204
2018-08-04T11:19:06.066Z,3264
2018-08-04T11:20:14.720Z,3296
2018-08-04T11:21:23.372Z,3316
2018-08-04T11:22:32.030Z,3296
2018-08-04T11:23:40.684Z,3268
2018-08-04T11:24:49.340Z,3272
2018-08-04T11:25:57.996Z,3264
2018-08-04T11:27:06.647Z,3256
2018-08-04T11:28:15.589Z,3212
2018-08-04T11:29:24.323Z,3140
2018-08-04T11:30:32.900Z,2836
2018-08-04T11:31:42.088Z,3064
2018-08-04T11:32:50.742Z,3232
2018-08-04T11:33:59.399Z,3180
2018-08-04T11:35:08.060Z,3304
2018-08-04T11:36:16.982Z,3340
2018-08-04T11:37:25.906Z,3288
2018-08-04T11:38:34.556Z,3356
2018-08-04T11:39:43.214Z,3476
2018-08-04T11:40:51.868Z,3476
2018-08-04T11:42:00.522Z,3504
2018-08-04T11:43:09.176Z,3500
2018-08-04T11:44:17.830Z,3564
2018-08-04T11:45:26.493Z,3660
2018-08-04T11:46:35.144Z,3652
2018-08-04T11:47:43.798Z,3680
2018-08-04T11:48:52.717Z,3720
2018-08-04T11:50:01.378Z,3788
2018-08-04T11:51:10.295Z,3772
2018-08-04T11:52:18.949Z,3848
2018-08-04T11:53:27.600Z,3780
2018-08-04T11:54:36.536Z,3884
2018-08-04T11:55:45.189Z,3776
2018-08-04T11:56:53.845Z,3596
2018-08-04T11:58:02.496Z,3340
2018-08-04T11:59:11.153Z,2972
2018-08-04T12:00:20.080Z,3072
2018-08-04T12:01:28.738Z,3312
2018-08-04T12:02:37.399Z,3288
2018-08-04T12:03:46.048Z,3148
2018-08-04T12:04:54.982Z,2972
2018-08-04T12:06:03.637Z,3016
2018-08-04T12:07:12.303Z,2944
2018-08-04T12:08:21.225Z,2844
2018-08-04T12:09:29.923Z,3240
2018-08-04T12:10:38.578Z,3348
2018-08-04T12:11:47.506Z,3248
2018-08-04T12:12:56.156Z,3276
2018-08-04T12:14:04.815Z,3372
2018-08-04T12:15:13.468Z,3340
2018-08-04T12:16:22.127Z,3256
2018-08-04T12:17:30.778Z,3380
2018-08-04T12:18:39.437Z,3460
2018-08-04T12:19:48.081Z,3452
2018-08-04T12:20:56.735Z,3456
2018-08-04T12:22:05.400Z,3304
2018-08-04T12:23:14.052Z,3460
2018-08-04T12:24:22.711Z,3492
2018-08-04T12:25:31.394Z,3464
2018-08-04T12:26:40.290Z,3532
2018-08-04T12:27:48.939Z,3456
2018-08-04T12:28:57.604Z,3308
2018-08-04T12:30:06.243Z,3440
2018-08-04T12:31:14.912Z,3508
2018-08-04T12:32:23.862Z,3532
2018-08-04T12:33:32.790Z,3464
2018-08-04T12:34:41.442Z,3568
2018-08-04T12:35:50.101Z,3732
2018-08-04T12:36:58.761Z,3600
2018-08-04T12:38:07.420Z,3416
2018-08-04T12:39:16.342Z,3592
2018-08-04T12:40:24.988Z,3524
2018-08-04T12:41:33.651Z,3540
2018-08-04T12:42:42.302Z,3548
2018-08-04T12:43:51.252Z,3432
2018-08-04T12:45:00.167Z,3008
2018-08-04T12:46:08.823Z,2972
2018-08-04T12:47:17.738Z,3280
2018-08-04T12:48:26.403Z,3472
2018-08-04T12:49:35.050Z,3488
2018-08-04T12:50:43.708Z,3476
2018-08-04T12:51:52.361Z,3440
2018-08-04T12:53:01.306Z,3424
2018-08-04T12:54:09.961Z,3384
2018-08-04T12:55:18.612Z,3372
2018-08-04T12:56:27.265Z,3348
2018-08-04T12:57:36.183Z,3356
2018-08-04T12:58:44.853Z,3356
2018-08-04T12:59:53.497Z,3352
2018-08-04T13:01:02.421Z,3396
2018-08-04T13:02:11.072Z,3532
2018-08-04T13:03:19.998Z,3660
2018-08-04T13:04:28.649Z,3968
2018-08-04T13:05:37.310Z,4112
2018-08-04T13:06:45.957Z,4012
2018-08-04T13:07:54.622Z,4140
2018-08-04T13:09:03.277Z,2824
2018-08-04T13:10:11.935Z,4564
2018-08-04T13:11:20.583Z,4696
2018-08-04T13:12:29.243Z,4576
2018-08-04T13:13:37.903Z,4348
2018-08-04T13:14:46.831Z,4180
2018-08-04T13:15:55.516Z,4112
2018-08-04T13:17:04.425Z,4208
2018-08-04T13:18:13.083Z,4364
2018-08-04T13:19:21.744Z,4488
2018-08-04T13:20:30.393Z,4688
2018-08-04T13:21:39.058Z,4920
2018-08-04T13:22:47.709Z,5112
2018-08-04T13:23:56.371Z,5172
2018-08-04T13:25:05.018Z,5276
2018-08-04T13:26:13.687Z,5240
2018-08-04T13:27:22.343Z,5008
2018-08-04T13:28:31.001Z,4960
2018-08-04T13:29:39.708Z,4832
2018-08-04T13:30:48.307Z,4744
2018-08-04T13:31:56.966Z,4768
2018-08-04T13:33:05.624Z,4700
2018-08-04T13:34:14.281Z,4576
2018-08-04T13:35:22.928Z,4492
2018-08-04T13:36:31.589Z,4304
2018-08-04T13:37:40.246Z,3964
2018-08-04T13:38:49.227Z,3808
2018-08-04T13:39:57.840Z,2168
2018-08-04T13:41:06.501Z,2648
2018-08-04T13:42:15.153Z,4200
2018-08-04T13:43:23.816Z,4384
2018-08-04T13:44:32.464Z,4480
2018-08-04T13:45:41.127Z,4536
2018-08-04T13:46:49.782Z,3644
2018-08-04T13:47:58.450Z,4604
2018-08-04T13:49:07.109Z,4588
2018-08-04T13:50:16.433Z,4532
2018-08-04T13:51:25.023Z,4488
2018-08-04T13:52:33.675Z,4360
2018-08-04T13:53:42.605Z,2924
2018-08-04T13:54:51.257Z,4404
2018-08-04T13:55:59.919Z,2852
2018-08-04T13:57:08.565Z,2788
2018-08-04T13:58:17.497Z,2912
2018-08-04T13:59:26.406Z,3108
2018-08-04T14:00:35.073Z,3320
2018-08-04T14:01:43.720Z,3856
2018-08-04T14:02:52.657Z,4896
2018-08-04T14:04:01.334Z,4588
2018-08-04T14:05:09.989Z,4584
2018-08-04T14:06:18.638Z,4780
2018-08-04T14:07:27.300Z,4748
2018-08-04T14:08:36.222Z,4548
2018-08-04T14:09:44.880Z,4532
2018-08-04T14:10:53.540Z,4528
2018-08-04T14:12:02.193Z,4572
2018-08-04T14:13:10.847Z,4596
2018-08-04T14:14:19.500Z,4364
2018-08-04T14:15:28.427Z,4256
2018-08-04T14:16:37.075Z,4308
2018-08-04T14:17:45.732Z,4444
2018-08-04T14:18:54.387Z,4500
2018-08-04T14:20:03.049Z,4540
2018-08-04T14:21:11.978Z,4528
2018-08-04T14:22:20.633Z,4724
2018-08-04T14:23:29.558Z,3940
2018-08-04T14:24:38.219Z,4704
2018-08-04T14:25:46.875Z,4328
2018-08-04T14:26:55.528Z,3084
2018-08-04T14:28:04.181Z,2680
2018-08-04T14:29:12.836Z,2424
2018-08-04T14:30:21.499Z,2304
2018-08-04T14:31:30.162Z,2348
2018-08-04T14:32:39.082Z,2252
2018-08-04T14:33:47.737Z,2184
2018-08-04T14:34:56.448Z,2148
2018-08-04T14:36:05.056Z,2236
2018-08-04T14:37:13.713Z,2408
2018-08-04T14:38:22.373Z,2632
2018-08-04T14:39:31.600Z,2596
2018-08-04T14:40:40.255Z,3596
2018-08-04T14:41:48.948Z,3476
2018-08-04T14:42:57.604Z,3324
2018-08-04T14:44:06.504Z,2796
2018-08-04T14:45:15.162Z,2064
2018-08-04T14:46:23.820Z,2020
2018-08-04T14:47:32.478Z,2024
2018-08-04T14:48:41.128Z,2048
2018-08-04T14:49:49.797Z,2176
2018-08-04T14:50:58.457Z,2484
2018-08-04T14:52:07.381Z,3208
2018-08-04T14:53:16.034Z,2236
2018-08-04T14:54:24.690Z,2416
2018-08-04T14:55:33.610Z,2320
2018-08-04T14:56:42.269Z,2472
2018-08-04T14:57:50.920Z,3096
2018-08-04T14:58:59.577Z,3452
2018-08-04T15:00:08.233Z,3520
2018-08-04T15:01:16.892Z,3524
2018-08-04T15:02:25.560Z,3416
2018-08-04T15:03:34.200Z,3304
2018-08-04T15:04:43.274Z,3204
2018-08-04T15:05:51.779Z,3120
2018-08-04T15:07:00.439Z,3064
2018-08-04T15:08:09.092Z,3188
2018-08-04T15:09:17.747Z,3116
2018-08-04T15:10:26.396Z,3140
2018-08-04T15:11:35.058Z,3120
2018-08-04T15:12:43.712Z,2840
2018-08-04T15:13:52.367Z,2996
2018-08-04T15:15:01.018Z,2504
2018-08-04T15:16:09.683Z,2500
2018-08-04T15:17:18.606Z,2636
2018-08-04T15:18:27.261Z,3184
2018-08-04T15:19:35.912Z,2592
2018-08-04T15:20:44.567Z,2828
2018-08-04T15:21:53.226Z,2916
2018-08-04T15:23:02.152Z,3096
2018-08-04T15:24:11.076Z,3116
2018-08-04T15:25:19.727Z,3092
2018-08-04T15:26:28.389Z,3060
2018-08-04T15:27:37.049Z,3152
2018-08-04T15:28:45.703Z,3248
2018-08-04T15:29:54.354Z,3248
2018-08-04T15:31:03.014Z,3328
2018-08-04T15:32:11.669Z,3628
2018-08-04T15:33:20.334Z,3704
2018-08-04T15:34:28.985Z,3632
2018-08-04T15:35:37.644Z,3656
2018-08-04T15:36:46.298Z,3684
2018-08-04T15:37:54.959Z,3440
2018-08-04T15:39:03.612Z,3348
2018-08-04T15:40:12.269Z,3116